sensor_id;sensor_type;location;lat;lon;timestamp;P1;durP1;ratioP1;P2;durP2;ratioP2
23322;SDS011;11833;52.554;13.554;2024-02-26T06:39:24;13.10;;;9.05;;
23322;SDS011;11833;52.554;13.554;2024-02-26T06:41:50;13.65;;;7.22;;
23322;SDS011;11833;52.554;13.554;2024-02-26T06:44:19;11.68;;;8.57;;
23322;SDS011;11833;52.554;13.554;2024-02-26T06:46:44;11.38;;;8.90;;
23322;SDS011;11833;52.554;13.554;2024-02-26T06:49:10;12.30;;;8.70;;
23322;SDS011;11833;52.554;13.554;2024-02-26T06:51:36;12.83;;;8.80;;
23322;SDS011;11833;52.554;13.554;2024-02-26T06:54:01;12.23;;;9.20;;
23322;SDS011;11833;52.554;13.554;2024-02-26T06:56:27;15.35;;;9.25;;
23322;SDS011;11833;52.554;13.554;2024-02-26T06:58:53;13.60;;;9.47;;
23322;SDS011;11833;52.554;13.554;2024-02-26T07:01:19;10.23;;;7.70;;
23322;SDS011;11833;52.554;13.554;2024-02-26T07:03:44;12.35;;;9.20;;
23322;SDS011;11833;52.554;13.554;2024-02-26T07:06:10;12.23;;;8.90;;
23322;SDS011;11833;52.554;13.554;2024-02-26T07:08:38;12.65;;;9.10;;
23322;SDS011;11833;52.554;13.554;2024-02-26T07:11:06;11.23;;;8.45;;
23322;SDS011;11833;52.554;13.554;2024-02-26T07:13:33;12.00;;;8.88;;
23322;SDS011;11833;52.554;13.554;2024-02-26T07:15:59;12.40;;;9.05;;
23322;SDS011;11833;52.554;13.554;2024-02-26T07:18:25;14.15;;;8.48;;
23322;SDS011;11833;52.554;13.554;2024-02-26T07:20:51;12.17;;;9.20;;
23322;SDS011;11833;52.554;13.554;2024-02-26T07:23:17;11.48;;;8.50;;
23322;SDS011;11833;52.554;13.554;2024-02-26T07:25:42;12.30;;;9.30;;
23322;SDS011;11833;52.554;13.554;2024-02-26T07:28:09;11.35;;;8.80;;
23322;SDS011;11833;52.554;13.554;2024-02-26T07:30:35;12.77;;;9.25;;
23322;SDS011;11833;52.554;13.554;2024-02-26T07:33:01;11.70;;;8.75;;
23322;SDS011;11833;52.554;13.554;2024-02-26T07:35:26;12.13;;;9.70;;
23322;SDS011;11833;52.554;13.554;2024-02-26T07:37:53;12.68;;;9.00;;
23322;SDS011;11833;52.554;13.554;2024-02-26T07:40:18;12.23;;;9.00;;
23322;SDS011;11833;52.554;13.554;2024-02-26T07:42:44;12.25;;;9.55;;
23322;SDS011;11833;52.554;13.554;2024-02-26T07:45:10;12.23;;;9.20;;
23322;SDS011;11833;52.554;13.554;2024-02-26T07:47:36;12.83;;;9.53;;
23322;SDS011;11833;52.554;13.554;2024-02-26T07:50:05;15.27;;;10.18;;
23322;SDS011;11833;52.554;13.554;2024-02-26T07:52:32;12.95;;;9.52;;
23322;SDS011;11833;52.554;13.554;2024-02-26T07:54:58;12.77;;;8.77;;
23322;SDS011;11833;52.554;13.554;2024-02-26T07:57:24;13.18;;;9.77;;
23322;SDS011;11833;52.554;13.554;2024-02-26T07:59:50;13.47;;;10.30;;
23322;SDS011;11833;52.554;13.554;2024-02-26T08:02:15;11.37;;;9.80;;
23322;SDS011;11833;52.554;13.554;2024-02-26T08:04:42;11.82;;;9.50;;
23322;SDS011;11833;52.554;13.554;2024-02-26T08:07:07;12.13;;;9.82;;
23322;SDS011;11833;52.554;13.554;2024-02-26T08:09:33;12.75;;;9.85;;
23322;SDS011;11833;52.554;13.554;2024-02-26T08:11:59;13.47;;;9.70;;
23322;SDS011;11833;52.554;13.554;2024-02-26T08:14:24;12.90;;;9.48;;
23322;SDS011;11833;52.554;13.554;2024-02-26T08:16:50;11.38;;;9.43;;
23322;SDS011;11833;52.554;13.554;2024-02-26T08:19:16;12.37;;;9.40;;
23322;SDS011;11833;52.554;13.554;2024-02-26T08:21:42;37.25;;;23.52;;
23322;SDS011;11833;52.554;13.554;2024-02-26T08:24:08;13.77;;;10.10;;
23322;SDS011;11833;52.554;13.554;2024-02-26T08:26:34;18.80;;;13.00;;
23322;SDS011;11833;52.554;13.554;2024-02-26T08:29:00;20.67;;;15.10;;
23322;SDS011;11833;52.554;13.554;2024-02-26T08:31:26;15.67;;;10.80;;
23322;SDS011;11833;52.554;13.554;2024-02-26T08:33:52;18.02;;;11.77;;
23322;SDS011;11833;52.554;13.554;2024-02-26T08:36:18;16.85;;;10.32;;
23322;SDS011;11833;52.554;13.554;2024-02-26T08:38:44;13.97;;;10.53;;
23322;SDS011;11833;52.554;13.554;2024-02-26T08:41:09;13.93;;;10.43;;
23322;SDS011;11833;52.554;13.554;2024-02-26T08:43:35;13.77;;;10.52;;
23322;SDS011;11833;52.554;13.554;2024-02-26T08:46:01;16.00;;;10.83;;
23322;SDS011;11833;52.554;13.554;2024-02-26T08:48:27;12.77;;;10.15;;
23322;SDS011;11833;52.554;13.554;2024-02-26T08:50:53;14.33;;;11.20;;
23322;SDS011;11833;52.554;13.554;2024-02-26T08:53:19;13.30;;;10.27;;
23322;SDS011;11833;52.554;13.554;2024-02-26T08:55:45;13.95;;;10.65;;
23322;SDS011;11833;52.554;13.554;2024-02-26T08:58:11;12.43;;;9.40;;
23322;SDS011;11833;52.554;13.554;2024-02-26T09:00:37;13.25;;;10.80;;
23322;SDS011;11833;52.554;13.554;2024-02-26T09:03:03;15.82;;;11.35;;
23322;SDS011;11833;52.554;13.554;2024-02-26T09:05:29;15.10;;;11.07;;
23322;SDS011;11833;52.554;13.554;2024-02-26T09:07:55;14.95;;;10.30;;
23322;SDS011;11833;52.554;13.554;2024-02-26T09:10:20;13.00;;;10.37;;
23322;SDS011;11833;52.554;13.554;2024-02-26T09:12:47;14.93;;;11.17;;
23322;SDS011;11833;52.554;13.554;2024-02-26T09:15:13;12.87;;;9.63;;
23322;SDS011;11833;52.554;13.554;2024-02-26T09:17:39;16.30;;;11.27;;
23322;SDS011;11833;52.554;13.554;2024-02-26T09:20:05;15.20;;;10.95;;
23322;SDS011;11833;52.554;13.554;2024-02-26T09:22:34;13.30;;;10.90;;
23322;SDS011;11833;52.554;13.554;2024-02-26T09:25:02;15.80;;;10.63;;
23322;SDS011;11833;52.554;13.554;2024-02-26T09:27:29;14.10;;;10.30;;
23322;SDS011;11833;52.554;13.554;2024-02-26T09:29:55;13.43;;;10.10;;
23322;SDS011;11833;52.554;13.554;2024-02-26T09:32:21;14.68;;;10.55;;
23322;SDS011;11833;52.554;13.554;2024-02-26T09:34:47;13.57;;;10.70;;
23322;SDS011;11833;52.554;13.554;2024-02-26T09:37:12;12.38;;;9.63;;
23322;SDS011;11833;52.554;13.554;2024-02-26T09:39:38;13.57;;;11.20;;
23322;SDS011;11833;52.554;13.554;2024-02-26T09:42:04;15.05;;;10.75;;
23322;SDS011;11833;52.554;13.554;2024-02-26T09:44:34;14.15;;;10.20;;
23322;SDS011;11833;52.554;13.554;2024-02-26T09:47:07;13.65;;;10.05;;
23322;SDS011;11833;52.554;13.554;2024-02-26T09:49:36;14.85;;;10.02;;
23322;SDS011;11833;52.554;13.554;2024-02-26T09:52:03;16.10;;;11.52;;
23322;SDS011;11833;52.554;13.554;2024-02-26T09:54:31;16.75;;;10.40;;
23322;SDS011;11833;52.554;13.554;2024-02-26T09:56:59;12.88;;;9.23;;
23322;SDS011;11833;52.554;13.554;2024-02-26T09:59:28;13.70;;;9.85;;
23322;SDS011;11833;52.554;13.554;2024-02-26T10:02:02;11.38;;;9.07;;
23322;SDS011;11833;52.554;13.554;2024-02-26T10:04:28;12.90;;;9.30;;
23322;SDS011;11833;52.554;13.554;2024-02-26T10:06:55;12.20;;;9.00;;
23322;SDS011;11833;52.554;13.554;2024-02-26T10:09:21;11.02;;;8.50;;
23322;SDS011;11833;52.554;13.554;2024-02-26T10:11:47;13.57;;;8.63;;
23322;SDS011;11833;52.554;13.554;2024-02-26T10:14:14;13.43;;;9.00;;
23322;SDS011;11833;52.554;13.554;2024-02-26T10:16:40;10.80;;;8.00;;
23322;SDS011;11833;52.554;13.554;2024-02-26T10:19:07;9.90;;;7.93;;
23322;SDS011;11833;52.554;13.554;2024-02-26T10:21:32;11.33;;;8.60;;
23322;SDS011;11833;52.554;13.554;2024-02-26T10:23:58;10.68;;;7.80;;
23322;SDS011;11833;52.554;13.554;2024-02-26T10:26:24;10.97;;;7.07;;
23322;SDS011;11833;52.554;13.554;2024-02-26T10:28:50;9.95;;;6.90;;
23322;SDS011;11833;52.554;13.554;2024-02-26T10:31:15;18.77;;;13.00;;
23322;SDS011;11833;52.554;13.554;2024-02-26T10:33:42;11.60;;;8.77;;
23322;SDS011;11833;52.554;13.554;2024-02-26T10:36:09;12.93;;;8.60;;
23322;SDS011;11833;52.554;13.554;2024-02-26T10:38:35;10.35;;;7.85;;
23322;SDS011;11833;52.554;13.554;2024-02-26T10:41:02;8.65;;;6.07;;
23322;SDS011;11833;52.554;13.554;2024-02-26T10:43:30;14.40;;;8.73;;
23322;SDS011;11833;52.554;13.554;2024-02-26T10:45:56;10.93;;;7.00;;
23322;SDS011;11833;52.554;13.554;2024-02-26T10:48:21;8.88;;;6.50;;
23322;SDS011;11833;52.554;13.554;2024-02-26T10:50:47;9.90;;;7.28;;
23322;SDS011;11833;52.554;13.554;2024-02-26T10:53:16;9.52;;;7.22;;
23322;SDS011;11833;52.554;13.554;2024-02-26T10:55:57;8.93;;;7.25;;
23322;SDS011;11833;52.554;13.554;2024-02-26T10:58:28;8.60;;;6.55;;
23322;SDS011;11833;52.554;13.554;2024-02-26T11:00:55;9.68;;;7.93;;
23322;SDS011;11833;52.554;13.554;2024-02-26T11:03:22;11.02;;;8.18;;
23322;SDS011;11833;52.554;13.554;2024-02-26T11:05:49;10.10;;;6.73;;
23322;SDS011;11833;52.554;13.554;2024-02-26T11:08:16;9.13;;;7.33;;
23322;SDS011;11833;52.554;13.554;2024-02-26T11:10:46;15.23;;;8.85;;
23322;SDS011;11833;52.554;13.554;2024-02-26T11:13:14;11.82;;;7.05;;
23322;SDS011;11833;52.554;13.554;2024-02-26T11:15:42;11.85;;;7.70;;
23322;SDS011;11833;52.554;13.554;2024-02-26T11:18:10;10.00;;;6.90;;
23322;SDS011;11833;52.554;13.554;2024-02-26T11:20:38;9.90;;;7.23;;
23322;SDS011;11833;52.554;13.554;2024-02-26T11:23:05;9.67;;;7.83;;
23322;SDS011;11833;52.554;13.554;2024-02-26T11:25:33;10.80;;;7.93;;
23322;SDS011;11833;52.554;13.554;2024-02-26T11:28:02;10.27;;;8.00;;
23322;SDS011;11833;52.554;13.554;2024-02-26T11:30:31;10.60;;;8.30;;
23322;SDS011;11833;52.554;13.554;2024-02-26T11:33:03;9.93;;;7.40;;
23322;SDS011;11833;52.554;13.554;2024-02-26T11:35:31;10.02;;;7.25;;
23322;SDS011;11833;52.554;13.554;2024-02-26T11:37:57;9.98;;;8.95;;
23322;SDS011;11833;52.554;13.554;2024-02-26T11:40:26;11.82;;;8.82;;
23322;SDS011;11833;52.554;13.554;2024-02-26T11:42:52;12.40;;;8.95;;
23322;SDS011;11833;52.554;13.554;2024-02-26T11:50:49;16.42;;;11.65;;
23322;SDS011;11833;52.554;13.554;2024-02-26T11:53:20;13.05;;;10.07;;
23322;SDS011;11833;52.554;13.554;2024-02-26T11:58:57;11.23;;;9.00;;
23322;SDS011;11833;52.554;13.554;2024-02-26T12:01:36;12.43;;;9.35;;
23322;SDS011;11833;52.554;13.554;2024-02-26T12:04:16;10.57;;;9.05;;
23322;SDS011;11833;52.554;13.554;2024-02-26T12:06:53;11.30;;;8.88;;
23322;SDS011;11833;52.554;13.554;2024-02-26T12:09:31;11.85;;;9.55;;
23322;SDS011;11833;52.554;13.554;2024-02-26T12:14:36;12.25;;;9.13;;
23322;SDS011;11833;52.554;13.554;2024-02-26T12:17:24;12.18;;;9.30;;
23322;SDS011;11833;52.554;13.554;2024-02-26T12:19:51;12.10;;;8.82;;
23322;SDS011;11833;52.554;13.554;2024-02-26T12:22:18;11.98;;;8.55;;
23322;SDS011;11833;52.554;13.554;2024-02-26T12:24:45;11.52;;;8.52;;
23322;SDS011;11833;52.554;13.554;2024-02-26T12:27:11;10.65;;;8.30;;
23322;SDS011;11833;52.554;13.554;2024-02-26T12:29:37;10.52;;;8.40;;
23322;SDS011;11833;52.554;13.554;2024-02-26T12:32:04;9.98;;;8.70;;
23322;SDS011;11833;52.554;13.554;2024-02-26T12:34:30;11.93;;;8.68;;
23322;SDS011;11833;52.554;13.554;2024-02-26T12:36:57;11.17;;;8.10;;
23322;SDS011;11833;52.554;13.554;2024-02-26T12:39:22;10.35;;;8.38;;
23322;SDS011;11833;52.554;13.554;2024-02-26T12:41:49;10.00;;;7.07;;
23322;SDS011;11833;52.554;13.554;2024-02-26T12:44:15;11.48;;;8.43;;
23322;SDS011;11833;52.554;13.554;2024-02-26T12:46:41;9.60;;;7.55;;
23322;SDS011;11833;52.554;13.554;2024-02-26T12:49:07;10.18;;;7.25;;
23322;SDS011;11833;52.554;13.554;2024-02-26T12:51:33;10.30;;;6.93;;
23322;SDS011;11833;52.554;13.554;2024-02-26T12:53:59;10.07;;;7.18;;
23322;SDS011;11833;52.554;13.554;2024-02-26T12:56:26;7.60;;;6.05;;
23322;SDS011;11833;52.554;13.554;2024-02-26T12:58:52;8.63;;;6.20;;
23322;SDS011;11833;52.554;13.554;2024-02-26T13:01:23;9.35;;;6.63;;
23322;SDS011;11833;52.554;13.554;2024-02-26T13:03:50;7.82;;;6.10;;
23322;SDS011;11833;52.554;13.554;2024-02-26T13:06:18;7.80;;;6.30;;
23322;SDS011;11833;52.554;13.554;2024-02-26T13:08:45;8.90;;;6.27;;
23322;SDS011;11833;52.554;13.554;2024-02-26T13:11:12;8.65;;;5.72;;
23322;SDS011;11833;52.554;13.554;2024-02-26T13:13:38;8.65;;;6.00;;
23322;SDS011;11833;52.554;13.554;2024-02-26T13:16:04;8.20;;;6.30;;
23322;SDS011;11833;52.554;13.554;2024-02-26T13:18:33;7.68;;;5.75;;
23322;SDS011;11833;52.554;13.554;2024-02-26T13:21:09;6.95;;;5.47;;
23322;SDS011;11833;52.554;13.554;2024-02-26T13:23:40;8.55;;;6.90;;
23322;SDS011;11833;52.554;13.554;2024-02-26T13:26:06;7.47;;;5.55;;
23322;SDS011;11833;52.554;13.554;2024-02-26T13:28:33;6.82;;;5.13;;
23322;SDS011;11833;52.554;13.554;2024-02-26T13:31:00;7.18;;;5.40;;
23322;SDS011;11833;52.554;13.554;2024-02-26T13:33:26;6.88;;;5.03;;
23322;SDS011;11833;52.554;13.554;2024-02-26T13:35:56;6.22;;;5.10;;
23322;SDS011;11833;52.554;13.554;2024-02-26T13:38:23;7.95;;;5.05;;
23322;SDS011;11833;52.554;13.554;2024-02-26T13:40:50;6.57;;;4.60;;
23322;SDS011;11833;52.554;13.554;2024-02-26T13:43:17;5.30;;;4.40;;
23322;SDS011;11833;52.554;13.554;2024-02-26T13:45:43;5.72;;;4.55;;
23322;SDS011;11833;52.554;13.554;2024-02-26T13:48:09;6.35;;;4.88;;
23322;SDS011;11833;52.554;13.554;2024-02-26T13:50:36;5.77;;;4.20;;
23322;SDS011;11833;52.554;13.554;2024-02-26T13:53:08;7.93;;;4.78;;
23322;SDS011;11833;52.554;13.554;2024-02-26T13:55:34;8.05;;;5.35;;
23322;SDS011;11833;52.554;13.554;2024-02-26T13:58:01;6.27;;;4.80;;
23322;SDS011;11833;52.554;13.554;2024-02-26T14:00:27;7.00;;;4.80;;
23322;SDS011;11833;52.554;13.554;2024-02-26T14:02:58;6.87;;;5.20;;
23322;SDS011;11833;52.554;13.554;2024-02-26T14:05:25;6.85;;;5.28;;
23322;SDS011;11833;52.554;13.554;2024-02-26T14:07:50;8.13;;;5.50;;
23322;SDS011;11833;52.554;13.554;2024-02-26T14:10:17;6.45;;;4.70;;
23322;SDS011;11833;52.554;13.554;2024-02-26T14:12:43;7.20;;;5.50;;
23322;SDS011;11833;52.554;13.554;2024-02-26T14:15:09;8.65;;;6.03;;
23322;SDS011;11833;52.554;13.554;2024-02-26T14:17:36;9.10;;;6.00;;
23322;SDS011;11833;52.554;13.554;2024-02-26T14:20:02;12.07;;;7.03;;
23322;SDS011;11833;52.554;13.554;2024-02-26T14:22:28;9.50;;;6.65;;
23322;SDS011;11833;52.554;13.554;2024-02-26T14:24:55;8.50;;;6.00;;
23322;SDS011;11833;52.554;13.554;2024-02-26T14:27:22;6.40;;;5.10;;
23322;SDS011;11833;52.554;13.554;2024-02-26T14:29:48;8.02;;;6.03;;
23322;SDS011;11833;52.554;13.554;2024-02-26T14:32:14;7.35;;;5.53;;
23322;SDS011;11833;52.554;13.554;2024-02-26T14:34:40;10.15;;;5.35;;
23322;SDS011;11833;52.554;13.554;2024-02-26T14:37:06;8.02;;;5.47;;
23322;SDS011;11833;52.554;13.554;2024-02-26T14:39:32;7.88;;;6.00;;
23322;SDS011;11833;52.554;13.554;2024-02-26T14:41:58;9.38;;;5.53;;
23322;SDS011;11833;52.554;13.554;2024-02-26T14:44:25;7.93;;;5.25;;
23322;SDS011;11833;52.554;13.554;2024-02-26T14:46:51;6.90;;;5.20;;
23322;SDS011;11833;52.554;13.554;2024-02-26T14:49:16;7.78;;;5.03;;
23322;SDS011;11833;52.554;13.554;2024-02-26T14:51:42;8.90;;;5.00;;
23322;SDS011;11833;52.554;13.554;2024-02-26T14:54:12;8.13;;;5.68;;
23322;SDS011;11833;52.554;13.554;2024-02-26T14:56:38;8.05;;;5.38;;
23322;SDS011;11833;52.554;13.554;2024-02-26T14:59:04;9.30;;;5.87;;
23322;SDS011;11833;52.554;13.554;2024-02-26T15:01:30;11.63;;;7.53;;
23322;SDS011;11833;52.554;13.554;2024-02-26T15:03:56;8.27;;;4.82;;
23322;SDS011;11833;52.554;13.554;2024-02-26T15:06:22;12.80;;;8.20;;
23322;SDS011;11833;52.554;13.554;2024-02-26T15:08:48;7.45;;;5.45;;
23322;SDS011;11833;52.554;13.554;2024-02-26T15:11:14;7.40;;;5.63;;
23322;SDS011;11833;52.554;13.554;2024-02-26T15:13:40;9.48;;;6.10;;
23322;SDS011;11833;52.554;13.554;2024-02-26T15:16:06;9.70;;;6.57;;
23322;SDS011;11833;52.554;13.554;2024-02-26T15:18:32;8.93;;;6.23;;
23322;SDS011;11833;52.554;13.554;2024-02-26T15:20:58;9.68;;;6.10;;
23322;SDS011;11833;52.554;13.554;2024-02-26T15:23:23;7.80;;;5.97;;
23322;SDS011;11833;52.554;13.554;2024-02-26T15:25:49;9.63;;;6.03;;
23322;SDS011;11833;52.554;13.554;2024-02-26T15:28:15;9.48;;;6.95;;
23322;SDS011;11833;52.554;13.554;2024-02-26T15:30:41;8.25;;;6.10;;
23322;SDS011;11833;52.554;13.554;2024-02-26T15:33:07;9.53;;;6.77;;
23322;SDS011;11833;52.554;13.554;2024-02-26T15:35:34;10.30;;;7.10;;
23322;SDS011;11833;52.554;13.554;2024-02-26T15:38:00;12.05;;;7.90;;
23322;SDS011;11833;52.554;13.554;2024-02-26T15:40:26;12.13;;;8.60;;
23322;SDS011;11833;52.554;13.554;2024-02-26T15:42:51;12.93;;;7.97;;
23322;SDS011;11833;52.554;13.554;2024-02-26T15:45:17;11.25;;;7.88;;
23322;SDS011;11833;52.554;13.554;2024-02-26T15:47:43;12.38;;;7.93;;
23322;SDS011;11833;52.554;13.554;2024-02-26T15:50:09;10.17;;;7.03;;
23322;SDS011;11833;52.554;13.554;2024-02-26T15:52:36;11.38;;;7.65;;
23322;SDS011;11833;52.554;13.554;2024-02-26T15:55:03;11.27;;;8.43;;
23322;SDS011;11833;52.554;13.554;2024-02-26T15:57:30;12.48;;;7.90;;
23322;SDS011;11833;52.554;13.554;2024-02-26T15:59:56;11.65;;;7.57;;
23322;SDS011;11833;52.554;13.554;2024-02-26T16:02:25;9.48;;;6.25;;
23322;SDS011;11833;52.554;13.554;2024-02-26T16:04:52;12.88;;;8.55;;
23322;SDS011;11833;52.554;13.554;2024-02-26T16:07:32;13.70;;;8.65;;
23322;SDS011;11833;52.554;13.554;2024-02-26T16:10:03;11.40;;;8.25;;
23322;SDS011;11833;52.554;13.554;2024-02-26T16:12:37;12.10;;;8.17;;
23322;SDS011;11833;52.554;13.554;2024-02-26T16:15:09;12.90;;;9.20;;
23322;SDS011;11833;52.554;13.554;2024-02-26T16:17:40;14.85;;;10.07;;
23322;SDS011;11833;52.554;13.554;2024-02-26T16:20:14;12.27;;;9.13;;
23322;SDS011;11833;52.554;13.554;2024-02-26T16:22:46;12.18;;;8.55;;
23322;SDS011;11833;52.554;13.554;2024-02-26T16:25:12;14.63;;;10.05;;
23322;SDS011;11833;52.554;13.554;2024-02-26T16:27:39;14.90;;;10.18;;
23322;SDS011;11833;52.554;13.554;2024-02-26T16:30:08;12.27;;;9.73;;
23322;SDS011;11833;52.554;13.554;2024-02-26T16:32:36;14.60;;;9.80;;
23322;SDS011;11833;52.554;13.554;2024-02-26T16:35:03;14.32;;;9.60;;
23322;SDS011;11833;52.554;13.554;2024-02-26T16:37:30;16.95;;;11.90;;
23322;SDS011;11833;52.554;13.554;2024-02-26T16:40:00;12.40;;;9.38;;
23322;SDS011;11833;52.554;13.554;2024-02-26T16:42:29;23.58;;;12.65;;
23322;SDS011;11833;52.554;13.554;2024-02-26T16:44:56;15.20;;;11.02;;
23322;SDS011;11833;52.554;13.554;2024-02-26T16:47:22;15.83;;;10.93;;
23322;SDS011;11833;52.554;13.554;2024-02-26T16:49:48;14.27;;;9.85;;
23322;SDS011;11833;52.554;13.554;2024-02-26T16:52:15;14.55;;;10.25;;
23322;SDS011;11833;52.554;13.554;2024-02-26T16:54:41;16.73;;;11.17;;
23322;SDS011;11833;52.554;13.554;2024-02-26T16:57:06;13.18;;;10.18;;
23322;SDS011;11833;52.554;13.554;2024-02-26T16:59:32;13.98;;;9.40;;
23322;SDS011;11833;52.554;13.554;2024-02-26T17:02:02;12.02;;;9.50;;
23322;SDS011;11833;52.554;13.554;2024-02-26T17:04:28;11.02;;;8.25;;
23322;SDS011;11833;52.554;13.554;2024-02-26T17:06:54;12.98;;;8.70;;
23322;SDS011;11833;52.554;13.554;2024-02-26T17:09:20;12.87;;;9.33;;
23322;SDS011;11833;52.554;13.554;2024-02-26T17:11:46;11.87;;;8.83;;
23322;SDS011;11833;52.554;13.554;2024-02-26T17:14:13;12.70;;;8.43;;
23322;SDS011;11833;52.554;13.554;2024-02-26T17:16:43;14.80;;;8.87;;
23322;SDS011;11833;52.554;13.554;2024-02-26T17:19:09;13.43;;;8.80;;
23322;SDS011;11833;52.554;13.554;2024-02-26T17:21:35;11.10;;;8.40;;
23322;SDS011;11833;52.554;13.554;2024-02-26T17:24:01;17.05;;;10.25;;
23322;SDS011;11833;52.554;13.554;2024-02-26T17:26:26;14.65;;;9.93;;
23322;SDS011;11833;52.554;13.554;2024-02-26T17:28:53;18.45;;;10.63;;
23322;SDS011;11833;52.554;13.554;2024-02-26T17:31:21;20.15;;;12.85;;
23322;SDS011;11833;52.554;13.554;2024-02-26T17:33:48;20.40;;;11.80;;
23322;SDS011;11833;52.554;13.554;2024-02-26T17:36:14;19.63;;;11.20;;
23322;SDS011;11833;52.554;13.554;2024-02-26T17:38:41;19.48;;;10.88;;
23322;SDS011;11833;52.554;13.554;2024-02-26T17:41:08;23.40;;;12.07;;
23322;SDS011;11833;52.554;13.554;2024-02-26T17:43:34;22.17;;;12.40;;
23322;SDS011;11833;52.554;13.554;2024-02-26T17:46:00;20.70;;;11.97;;
23322;SDS011;11833;52.554;13.554;2024-02-26T17:48:26;18.90;;;11.00;;
23322;SDS011;11833;52.554;13.554;2024-02-26T17:50:53;20.60;;;11.52;;
23322;SDS011;11833;52.554;13.554;2024-02-26T17:53:20;18.77;;;10.85;;
23322;SDS011;11833;52.554;13.554;2024-02-26T17:55:49;22.90;;;12.98;;
23322;SDS011;11833;52.554;13.554;2024-02-26T17:58:15;19.80;;;11.45;;
23322;SDS011;11833;52.554;13.554;2024-02-26T18:00:45;18.10;;;10.80;;
23322;SDS011;11833;52.554;13.554;2024-02-26T18:03:14;17.70;;;11.05;;
23322;SDS011;11833;52.554;13.554;2024-02-26T18:05:41;18.15;;;11.77;;
23322;SDS011;11833;52.554;13.554;2024-02-26T18:08:08;18.15;;;10.32;;
23322;SDS011;11833;52.554;13.554;2024-02-26T18:10:34;19.65;;;11.35;;
23322;SDS011;11833;52.554;13.554;2024-02-26T18:13:00;17.30;;;10.93;;
23322;SDS011;11833;52.554;13.554;2024-02-26T18:15:28;19.95;;;11.02;;
23322;SDS011;11833;52.554;13.554;2024-02-26T18:17:53;19.13;;;11.05;;
23322;SDS011;11833;52.554;13.554;2024-02-26T18:20:19;14.00;;;10.30;;
23322;SDS011;11833;52.554;13.554;2024-02-26T18:22:45;18.63;;;9.38;;
23322;SDS011;11833;52.554;13.554;2024-02-26T18:25:11;15.57;;;10.23;;
23322;SDS011;11833;52.554;13.554;2024-02-26T18:27:37;15.88;;;9.43;;
23322;SDS011;11833;52.554;13.554;2024-02-26T18:30:05;13.63;;;9.38;;
23322;SDS011;11833;52.554;13.554;2024-02-26T18:32:33;13.70;;;9.17;;
23322;SDS011;11833;52.554;13.554;2024-02-26T18:34:59;12.77;;;8.80;;
23322;SDS011;11833;52.554;13.554;2024-02-26T18:37:25;14.63;;;9.37;;
23322;SDS011;11833;52.554;13.554;2024-02-26T18:39:51;13.10;;;9.10;;
23322;SDS011;11833;52.554;13.554;2024-02-26T18:42:17;13.33;;;8.87;;
23322;SDS011;11833;52.554;13.554;2024-02-26T18:44:44;13.73;;;8.75;;
23322;SDS011;11833;52.554;13.554;2024-02-26T18:47:10;12.60;;;8.38;;
23322;SDS011;11833;52.554;13.554;2024-02-26T18:49:40;14.68;;;8.52;;
23322;SDS011;11833;52.554;13.554;2024-02-26T18:52:07;13.75;;;8.98;;
23322;SDS011;11833;52.554;13.554;2024-02-26T18:54:33;11.60;;;8.17;;
23322;SDS011;11833;52.554;13.554;2024-02-26T18:56:59;12.23;;;8.07;;
23322;SDS011;11833;52.554;13.554;2024-02-26T18:59:26;11.82;;;7.75;;
23322;SDS011;11833;52.554;13.554;2024-02-26T19:01:52;12.10;;;7.53;;
23322;SDS011;11833;52.554;13.554;2024-02-26T19:04:18;13.90;;;8.03;;
23322;SDS011;11833;52.554;13.554;2024-02-26T19:06:44;10.40;;;7.47;;
23322;SDS011;11833;52.554;13.554;2024-02-26T19:09:11;9.98;;;7.55;;
23322;SDS011;11833;52.554;13.554;2024-02-26T19:11:37;10.60;;;7.03;;
23322;SDS011;11833;52.554;13.554;2024-02-26T19:14:03;11.48;;;7.45;;
23322;SDS011;11833;52.554;13.554;2024-02-26T19:16:28;11.37;;;7.37;;
23322;SDS011;11833;52.554;13.554;2024-02-26T19:18:59;10.95;;;6.97;;
23322;SDS011;11833;52.554;13.554;2024-02-26T19:21:25;11.55;;;7.57;;
23322;SDS011;11833;52.554;13.554;2024-02-26T19:23:51;12.98;;;7.10;;
23322;SDS011;11833;52.554;13.554;2024-02-26T19:26:17;11.03;;;6.97;;
23322;SDS011;11833;52.554;13.554;2024-02-26T19:28:42;10.00;;;6.93;;
23322;SDS011;11833;52.554;13.554;2024-02-26T19:31:10;11.35;;;6.88;;
23322;SDS011;11833;52.554;13.554;2024-02-26T19:33:37;10.82;;;7.28;;
23322;SDS011;11833;52.554;13.554;2024-02-26T19:36:02;15.60;;;7.10;;
23322;SDS011;11833;52.554;13.554;2024-02-26T19:38:28;10.13;;;6.63;;
23322;SDS011;11833;52.554;13.554;2024-02-26T19:40:54;10.73;;;6.50;;
23322;SDS011;11833;52.554;13.554;2024-02-26T19:43:20;9.40;;;6.55;;
23322;SDS011;11833;52.554;13.554;2024-02-26T19:45:46;9.13;;;6.25;;
23322;SDS011;11833;52.554;13.554;2024-02-26T19:48:12;9.40;;;6.75;;
23322;SDS011;11833;52.554;13.554;2024-02-26T19:50:38;8.57;;;5.80;;
23322;SDS011;11833;52.554;13.554;2024-02-26T19:53:08;10.45;;;7.25;;
23322;SDS011;11833;52.554;13.554;2024-02-26T19:55:35;9.95;;;6.57;;
23322;SDS011;11833;52.554;13.554;2024-02-26T19:58:00;8.60;;;6.55;;
23322;SDS011;11833;52.554;13.554;2024-02-26T20:00:28;9.32;;;6.50;;
23322;SDS011;11833;52.554;13.554;2024-02-26T20:02:55;11.32;;;6.72;;
23322;SDS011;11833;52.554;13.554;2024-02-26T20:05:21;9.60;;;7.07;;
23322;SDS011;11833;52.554;13.554;2024-02-26T20:07:46;10.47;;;6.30;;
23322;SDS011;11833;52.554;13.554;2024-02-26T20:10:12;8.55;;;6.15;;
23322;SDS011;11833;52.554;13.554;2024-02-26T20:12:38;9.65;;;6.78;;
23322;SDS011;11833;52.554;13.554;2024-02-26T20:15:04;11.35;;;6.85;;
23322;SDS011;11833;52.554;13.554;2024-02-26T20:17:30;9.43;;;6.15;;
23322;SDS011;11833;52.554;13.554;2024-02-26T20:19:56;8.82;;;6.30;;
23322;SDS011;11833;52.554;13.554;2024-02-26T20:22:22;9.73;;;6.63;;
23322;SDS011;11833;52.554;13.554;2024-02-26T20:24:49;9.37;;;6.40;;
23322;SDS011;11833;52.554;13.554;2024-02-26T20:27:17;9.73;;;6.30;;
23322;SDS011;11833;52.554;13.554;2024-02-26T20:29:43;10.45;;;6.70;;
23322;SDS011;11833;52.554;13.554;2024-02-26T20:32:09;8.52;;;6.43;;
23322;SDS011;11833;52.554;13.554;2024-02-26T20:34:35;10.55;;;6.90;;
23322;SDS011;11833;52.554;13.554;2024-02-26T20:37:01;9.02;;;6.30;;
23322;SDS011;11833;52.554;13.554;2024-02-26T20:39:27;8.32;;;6.13;;
23322;SDS011;11833;52.554;13.554;2024-02-26T20:41:56;8.20;;;6.15;;
23322;SDS011;11833;52.554;13.554;2024-02-26T20:44:22;8.95;;;6.38;;
23322;SDS011;11833;52.554;13.554;2024-02-26T20:46:48;8.95;;;6.85;;
23322;SDS011;11833;52.554;13.554;2024-02-26T20:49:15;9.38;;;6.25;;
23322;SDS011;11833;52.554;13.554;2024-02-26T20:51:42;10.35;;;6.82;;
23322;SDS011;11833;52.554;13.554;2024-02-26T20:54:08;9.40;;;6.43;;
23322;SDS011;11833;52.554;13.554;2024-02-26T20:56:36;9.13;;;6.15;;
23322;SDS011;11833;52.554;13.554;2024-02-26T20:59:02;10.20;;;7.00;;
23322;SDS011;11833;52.554;13.554;2024-02-26T21:01:28;9.90;;;6.50;;
23322;SDS011;11833;52.554;13.554;2024-02-26T21:03:54;10.27;;;6.43;;
23322;SDS011;11833;52.554;13.554;2024-02-26T21:06:20;9.27;;;6.13;;
23322;SDS011;11833;52.554;13.554;2024-02-26T21:08:46;10.90;;;7.07;;
23322;SDS011;11833;52.554;13.554;2024-02-26T21:11:12;12.90;;;7.75;;